FDX503 KOKC-KMCI
Flight info
| Callsign | FDX503 |
|---|---|
| Flight time | 1h 23m |
| Altitude | 35000 |
| Route | WENDY3 BELMN ZOURA WUTNG3 |
| Aircraft | A306/H-SDE3FGHIRWY/LB1 |
Departure
| Time | 2026-05-07 12:40 |
|---|---|
| Airport | OKC Will Rogers World Airport (KOKC) |
Arrival
| Time | 2026-05-07 14:04 |
|---|---|
| Airport | Kansas City International Airport (KMCI) |
| Time | Latitude | Longitude | Altitude | Speed | Heading |
|---|---|---|---|---|---|
| 2026-05-07 12:08 | 35.39922 | -97.59235 | 1301 ft | 0 kts | 270° |
| 2026-05-07 12:33 | 35.39922 | -97.59180 | 1302 ft | 4 kts | 273° |
| 2026-05-07 12:33 | 35.39914 | -97.59154 | 1301 ft | 4 kts | 332° |
| 2026-05-07 12:33 | 35.39890 | -97.59147 | 1301 ft | 2 kts | 0° |
| 2026-05-07 12:34 | 35.39884 | -97.59147 | 1301 ft | 0 kts | 0° |
| 2026-05-07 12:36 | 35.39905 | -97.59121 | 1300 ft | 8 kts | 68° |
| 2026-05-07 12:36 | 35.39945 | -97.59069 | 1298 ft | 11 kts | 17° |
| 2026-05-07 12:36 | 35.40019 | -97.59063 | 1298 ft | 10 kts | 0° |
| 2026-05-07 12:37 | 35.40094 | -97.59063 | 1299 ft | 13 kts | 360° |
| 2026-05-07 12:37 | 35.40199 | -97.59063 | 1299 ft | 15 kts | 360° |
| 2026-05-07 12:37 | 35.40308 | -97.59064 | 1297 ft | 16 kts | 360° |
| 2026-05-07 12:37 | 35.40411 | -97.59064 | 1296 ft | 13 kts | 360° |
| 2026-05-07 12:38 | 35.40489 | -97.59042 | 1298 ft | 9 kts | 45° |
| 2026-05-07 12:38 | 35.40503 | -97.58984 | 1299 ft | 6 kts | 87° |
| 2026-05-07 12:38 | 35.40502 | -97.58916 | 1300 ft | 9 kts | 102° |
| 2026-05-07 12:38 | 35.40459 | -97.58895 | 1301 ft | 2 kts | 181° |
| 2026-05-07 12:39 | 35.40452 | -97.58895 | 1301 ft | 6 kts | 181° |
| 2026-05-07 12:40 | 35.40200 | -97.58896 | 1299 ft | 72 kts | 180° |
| 2026-05-07 12:40 | 35.39469 | -97.58895 | 1297 ft | 136 kts | 180° |
| 2026-05-07 12:40 | 35.38326 | -97.58898 | 1423 ft | 186 kts | 180° |
| 2026-05-07 12:40 | 35.36992 | -97.58884 | 2322 ft | 196 kts | 182° |
| 2026-05-07 12:41 | 35.35630 | -97.59331 | 3006 ft | 215 kts | 205° |
| 2026-05-07 12:41 | 35.34269 | -97.60143 | 3763 ft | 227 kts | 207° |
| 2026-05-07 12:41 | 35.32759 | -97.61078 | 4074 ft | 254 kts | 208° |
| 2026-05-07 12:41 | 35.31124 | -97.62102 | 4379 ft | 270 kts | 208° |
| 2026-05-07 12:42 | 35.29503 | -97.63287 | 5226 ft | 271 kts | 224° |
| 2026-05-07 12:42 | 35.28565 | -97.65187 | 6363 ft | 258 kts | 260° |
| 2026-05-07 12:42 | 35.28708 | -97.67279 | 7495 ft | 247 kts | 294° |
| 2026-05-07 12:42 | 35.29788 | -97.68899 | 8498 ft | 251 kts | 320° |
| 2026-05-07 12:43 | 35.31380 | -97.69855 | 9415 ft | 262 kts | 339° |
| 2026-05-07 12:43 | 35.33231 | -97.70104 | 10283 ft | 275 kts | 355° |
| 2026-05-07 12:43 | 35.35212 | -97.69871 | 10749 ft | 297 kts | 1° |
| 2026-05-07 12:43 | 35.37333 | -97.69498 | 11025 ft | 319 kts | 2° |
| 2026-05-07 12:44 | 35.39595 | -97.69101 | 11299 ft | 338 kts | 2° |
| 2026-05-07 12:44 | 35.41980 | -97.68696 | 11584 ft | 355 kts | 2° |
| 2026-05-07 12:44 | 35.43626 | -97.68423 | 11775 ft | 365 kts | 2° |
| 2026-05-07 12:44 | 35.46180 | -97.68001 | 12248 ft | 374 kts | 2° |
| 2026-05-07 12:45 | 35.48773 | -97.67574 | 12805 ft | 378 kts | 2° |
| 2026-05-07 12:45 | 35.51399 | -97.67142 | 13392 ft | 383 kts | 2° |
| 2026-05-07 12:45 | 35.54044 | -97.66708 | 14033 ft | 385 kts | 3° |
| 2026-05-07 12:45 | 35.56710 | -97.66268 | 14580 ft | 388 kts | 3° |
| 2026-05-07 12:46 | 35.59391 | -97.65825 | 15153 ft | 390 kts | 3° |
| 2026-05-07 12:46 | 35.62084 | -97.65380 | 15737 ft | 392 kts | 3° |
| 2026-05-07 12:46 | 35.64778 | -97.64935 | 16307 ft | 394 kts | 4° |
| 2026-05-07 12:46 | 35.67508 | -97.64483 | 16878 ft | 397 kts | 4° |
| 2026-05-07 12:47 | 35.70249 | -97.64028 | 17433 ft | 399 kts | 4° |
| 2026-05-07 12:47 | 35.73013 | -97.63533 | 17976 ft | 403 kts | 6° |
| 2026-05-07 12:47 | 35.75735 | -97.62596 | 18499 ft | 410 kts | 15° |
| 2026-05-07 12:47 | 35.78425 | -97.61375 | 18923 ft | 414 kts | 17° |
| 2026-05-07 12:48 | 35.81129 | -97.60104 | 19322 ft | 418 kts | 17° |
| 2026-05-07 12:48 | 35.83852 | -97.58821 | 19730 ft | 421 kts | 16° |
| 2026-05-07 12:48 | 35.86606 | -97.57529 | 20058 ft | 426 kts | 16° |
| 2026-05-07 12:48 | 35.89389 | -97.56224 | 20451 ft | 429 kts | 16° |
| 2026-05-07 12:49 | 35.92187 | -97.54913 | 20858 ft | 431 kts | 16° |
| 2026-05-07 12:49 | 35.94999 | -97.53599 | 21260 ft | 434 kts | 16° |
| 2026-05-07 12:49 | 35.97829 | -97.52276 | 21637 ft | 436 kts | 16° |
| 2026-05-07 12:49 | 36.00680 | -97.50944 | 22013 ft | 439 kts | 16° |
| 2026-05-07 12:50 | 36.03545 | -97.49605 | 22446 ft | 441 kts | 16° |
| 2026-05-07 12:50 | 36.06416 | -97.48261 | 22835 ft | 443 kts | 16° |
| 2026-05-07 12:50 | 36.09309 | -97.46906 | 23181 ft | 446 kts | 16° |
| 2026-05-07 12:50 | 36.12220 | -97.45543 | 23512 ft | 449 kts | 15° |
| 2026-05-07 12:51 | 36.15152 | -97.44168 | 23828 ft | 452 kts | 15° |
| 2026-05-07 12:51 | 36.18103 | -97.42784 | 24081 ft | 455 kts | 15° |
| 2026-05-07 12:51 | 36.21072 | -97.41390 | 24337 ft | 458 kts | 15° |
| 2026-05-07 12:51 | 36.24061 | -97.39986 | 24585 ft | 461 kts | 15° |
| 2026-05-07 12:52 | 36.27069 | -97.38571 | 24831 ft | 464 kts | 15° |
| 2026-05-07 12:52 | 36.30089 | -97.37148 | 25139 ft | 465 kts | 15° |
| 2026-05-07 12:52 | 36.33120 | -97.35719 | 25408 ft | 467 kts | 15° |
| 2026-05-07 12:52 | 36.36162 | -97.34284 | 25647 ft | 469 kts | 14° |
| 2026-05-07 12:53 | 36.39219 | -97.32842 | 25881 ft | 471 kts | 14° |
| 2026-05-07 12:53 | 36.42293 | -97.31390 | 26112 ft | 474 kts | 14° |
| 2026-05-07 12:53 | 36.45382 | -97.29929 | 26334 ft | 476 kts | 14° |
| 2026-05-07 12:53 | 36.48479 | -97.28463 | 26567 ft | 478 kts | 14° |
| 2026-05-07 12:54 | 36.51595 | -97.26988 | 26785 ft | 480 kts | 14° |
| 2026-05-07 12:54 | 36.54721 | -97.25506 | 27048 ft | 481 kts | 15° |
| 2026-05-07 12:54 | 36.57848 | -97.24020 | 27306 ft | 483 kts | 15° |
| 2026-05-07 12:54 | 36.60994 | -97.22526 | 27500 ft | 484 kts | 15° |
| 2026-05-07 12:55 | 36.64148 | -97.21028 | 27704 ft | 486 kts | 15° |
| 2026-05-07 12:55 | 36.67267 | -97.19544 | 27967 ft | 487 kts | 15° |
| 2026-05-07 12:55 | 36.70474 | -97.18017 | 28257 ft | 486 kts | 15° |
| 2026-05-07 12:55 | 36.73590 | -97.16516 | 28539 ft | 487 kts | 16° |
| 2026-05-07 12:56 | 36.76719 | -97.14692 | 28823 ft | 491 kts | 20° |
| 2026-05-07 12:56 | 36.79717 | -97.12771 | 29227 ft | 489 kts | 22° |
| 2026-05-07 12:56 | 36.82720 | -97.10817 | 29730 ft | 485 kts | 22° |
| 2026-05-07 12:56 | 36.85705 | -97.08875 | 30040 ft | 484 kts | 22° |
| 2026-05-07 12:57 | 36.88698 | -97.06931 | 30300 ft | 485 kts | 21° |
| 2026-05-07 12:57 | 36.91695 | -97.04985 | 30506 ft | 486 kts | 21° |
| 2026-05-07 12:57 | 36.93991 | -97.03493 | 30646 ft | 487 kts | 21° |
| 2026-05-07 12:57 | 36.97002 | -97.01535 | 30845 ft | 488 kts | 21° |
| 2026-05-07 12:58 | 37.00015 | -96.99574 | 31046 ft | 489 kts | 21° |
| 2026-05-07 12:58 | 37.03037 | -96.97605 | 31298 ft | 490 kts | 21° |
| 2026-05-07 12:58 | 37.06046 | -96.95641 | 31694 ft | 486 kts | 21° |
| 2026-05-07 12:58 | 37.09037 | -96.93687 | 31982 ft | 485 kts | 21° |
| 2026-05-07 12:59 | 37.12035 | -96.91730 | 32133 ft | 487 kts | 21° |
| 2026-05-07 12:59 | 37.15048 | -96.89762 | 32335 ft | 489 kts | 21° |
| 2026-05-07 12:59 | 37.18061 | -96.87790 | 32530 ft | 490 kts | 21° |
| 2026-05-07 12:59 | 37.21084 | -96.85810 | 32730 ft | 491 kts | 21° |
| 2026-05-07 13:00 | 37.24112 | -96.83825 | 32933 ft | 492 kts | 20° |
| 2026-05-07 13:00 | 37.27152 | -96.81832 | 33116 ft | 493 kts | 20° |
| 2026-05-07 13:00 | 37.30191 | -96.79835 | 33389 ft | 493 kts | 20° |
| 2026-05-07 13:00 | 37.33225 | -96.77837 | 33685 ft | 492 kts | 20° |
| 2026-05-07 13:01 | 37.36260 | -96.75841 | 33881 ft | 493 kts | 20° |
| 2026-05-07 13:01 | 37.39300 | -96.73839 | 34070 ft | 494 kts | 20° |
| 2026-05-07 13:01 | 37.42346 | -96.71831 | 34270 ft | 495 kts | 20° |
| 2026-05-07 13:01 | 37.45396 | -96.69818 | 34463 ft | 495 kts | 20° |
| 2026-05-07 13:02 | 37.48445 | -96.67804 | 34668 ft | 495 kts | 20° |
| 2026-05-07 13:02 | 37.51490 | -96.65790 | 34873 ft | 495 kts | 20° |
| 2026-05-07 13:02 | 37.54537 | -96.63774 | 35095 ft | 494 kts | 20° |
| 2026-05-07 13:02 | 37.57569 | -96.61764 | 35142 ft | 489 kts | 20° |
| 2026-05-07 13:03 | 37.63524 | -96.57808 | 35144 ft | 481 kts | 20° |
| 2026-05-07 13:03 | 37.69402 | -96.53907 | 35140 ft | 480 kts | 20° |
| 2026-05-07 13:04 | 37.75314 | -96.49974 | 35138 ft | 481 kts | 20° |
| 2026-05-07 13:04 | 37.81226 | -96.46032 | 35157 ft | 480 kts | 20° |
| 2026-05-07 13:05 | 37.87135 | -96.42085 | 35139 ft | 481 kts | 20° |
| 2026-05-07 13:05 | 37.89964 | -96.40193 | 35129 ft | 481 kts | 20° |
| 2026-05-07 13:38 | 37.94028 | -96.37470 | 35134 ft | 484 kts | 20° |
| 2026-05-07 13:38 | 37.99994 | -96.33470 | 35133 ft | 486 kts | 20° |
| 2026-05-07 13:39 | 38.05971 | -96.29454 | 35124 ft | 486 kts | 20° |
| 2026-05-07 13:39 | 38.08950 | -96.27447 | 34925 ft | 483 kts | 20° |
| 2026-05-07 13:39 | 38.11917 | -96.25449 | 34280 ft | 483 kts | 20° |
| 2026-05-07 13:39 | 38.14887 | -96.23447 | 33487 ft | 484 kts | 20° |
| 2026-05-07 13:40 | 38.17854 | -96.21445 | 32706 ft | 483 kts | 21° |
| 2026-05-07 13:40 | 38.20820 | -96.19441 | 31932 ft | 482 kts | 21° |
| 2026-05-07 13:40 | 38.23755 | -96.17453 | 30871 ft | 476 kts | 21° |
| 2026-05-07 13:40 | 38.26672 | -96.15478 | 29655 ft | 474 kts | 21° |
| 2026-05-07 13:41 | 38.29429 | -96.13158 | 28588 ft | 478 kts | 35° |
| 2026-05-07 13:41 | 38.31799 | -96.10169 | 27878 ft | 480 kts | 40° |
| 2026-05-07 13:41 | 38.34028 | -96.07099 | 27239 ft | 477 kts | 41° |
| 2026-05-07 13:41 | 38.36285 | -96.03957 | 26556 ft | 473 kts | 41° |
| 2026-05-07 13:42 | 38.38496 | -96.00878 | 25922 ft | 469 kts | 41° |
| 2026-05-07 13:42 | 38.40691 | -95.97824 | 25262 ft | 466 kts | 41° |
| 2026-05-07 13:42 | 38.42870 | -95.94794 | 24638 ft | 461 kts | 41° |
| 2026-05-07 13:42 | 38.45029 | -95.91791 | 24138 ft | 455 kts | 41° |
| 2026-05-07 13:43 | 38.47163 | -95.88823 | 23484 ft | 452 kts | 41° |
| 2026-05-07 13:43 | 38.49280 | -95.85877 | 22891 ft | 447 kts | 41° |
| 2026-05-07 13:43 | 38.51369 | -95.82966 | 22247 ft | 443 kts | 41° |
| 2026-05-07 13:43 | 38.53431 | -95.80090 | 21726 ft | 436 kts | 41° |
| 2026-05-07 13:44 | 38.55473 | -95.77242 | 21093 ft | 433 kts | 41° |
| 2026-05-07 13:44 | 38.57486 | -95.74430 | 20541 ft | 423 kts | 41° |
| 2026-05-07 13:44 | 38.59456 | -95.71674 | 19573 ft | 418 kts | 41° |
| 2026-05-07 13:44 | 38.61405 | -95.68949 | 18720 ft | 412 kts | 41° |
| 2026-05-07 13:45 | 38.63287 | -95.66312 | 17982 ft | 402 kts | 41° |
| 2026-05-07 13:45 | 38.65137 | -95.63715 | 17364 ft | 388 kts | 41° |
| 2026-05-07 13:45 | 38.66923 | -95.61207 | 16800 ft | 377 kts | 41° |
| 2026-05-07 13:45 | 38.68689 | -95.58735 | 16213 ft | 376 kts | 41° |
| 2026-05-07 13:46 | 38.70453 | -95.56264 | 15623 ft | 376 kts | 41° |
| 2026-05-07 13:46 | 38.72213 | -95.53794 | 15037 ft | 375 kts | 42° |
| 2026-05-07 13:46 | 38.73959 | -95.51340 | 14462 ft | 374 kts | 42° |
| 2026-05-07 13:46 | 38.75710 | -95.48877 | 13879 ft | 372 kts | 42° |
| 2026-05-07 13:47 | 38.77451 | -95.46425 | 13261 ft | 371 kts | 42° |
| 2026-05-07 13:47 | 38.79180 | -95.43988 | 12654 ft | 368 kts | 43° |
| 2026-05-07 13:47 | 38.80892 | -95.41573 | 12170 ft | 363 kts | 43° |
| 2026-05-07 13:47 | 38.82568 | -95.39211 | 11881 ft | 352 kts | 43° |
| 2026-05-07 13:48 | 38.84193 | -95.36925 | 11725 ft | 344 kts | 43° |
| 2026-05-07 13:48 | 38.85810 | -95.34652 | 11534 ft | 345 kts | 43° |
| 2026-05-07 13:48 | 38.87430 | -95.32375 | 11376 ft | 346 kts | 43° |
| 2026-05-07 13:48 | 38.89050 | -95.30097 | 11189 ft | 346 kts | 43° |
| 2026-05-07 13:49 | 38.90664 | -95.27816 | 11014 ft | 345 kts | 44° |
| 2026-05-07 13:49 | 38.92276 | -95.25535 | 10838 ft | 344 kts | 44° |
| 2026-05-07 13:49 | 38.93875 | -95.23267 | 10675 ft | 339 kts | 44° |
| 2026-05-07 13:49 | 38.95426 | -95.21062 | 10513 ft | 326 kts | 44° |
| 2026-05-07 13:50 | 38.96923 | -95.18933 | 10353 ft | 315 kts | 44° |
| 2026-05-07 13:50 | 38.98417 | -95.16937 | 10168 ft | 304 kts | 38° |
| 2026-05-07 13:50 | 39.00026 | -95.15221 | 10017 ft | 299 kts | 34° |
| 2026-05-07 13:50 | 39.01666 | -95.13571 | 9848 ft | 299 kts | 33° |
| 2026-05-07 13:51 | 39.03305 | -95.11925 | 9677 ft | 299 kts | 34° |
| 2026-05-07 13:51 | 39.04943 | -95.10280 | 9523 ft | 298 kts | 34° |
| 2026-05-07 13:51 | 39.06578 | -95.08634 | 9366 ft | 298 kts | 34° |
| 2026-05-07 13:51 | 39.08201 | -95.06998 | 9212 ft | 298 kts | 34° |
| 2026-05-07 13:52 | 39.09831 | -95.05355 | 9053 ft | 297 kts | 34° |
| 2026-05-07 13:52 | 39.11461 | -95.03710 | 8904 ft | 297 kts | 34° |
| 2026-05-07 13:52 | 39.13084 | -95.02067 | 8728 ft | 297 kts | 34° |
| 2026-05-07 13:52 | 39.14706 | -95.00424 | 8587 ft | 297 kts | 34° |
| 2026-05-07 13:53 | 39.16327 | -94.98781 | 8426 ft | 296 kts | 34° |
| 2026-05-07 13:53 | 39.17943 | -94.97141 | 8261 ft | 296 kts | 34° |
| 2026-05-07 13:53 | 39.19559 | -94.95501 | 8120 ft | 295 kts | 34° |
| 2026-05-07 13:53 | 39.21175 | -94.93862 | 7951 ft | 295 kts | 34° |
| 2026-05-07 13:54 | 39.22787 | -94.92225 | 7805 ft | 295 kts | 35° |
| 2026-05-07 13:54 | 39.24385 | -94.90600 | 7650 ft | 288 kts | 35° |
| 2026-05-07 13:54 | 39.25932 | -94.89025 | 7530 ft | 279 kts | 35° |
| 2026-05-07 13:54 | 39.27432 | -94.87495 | 7377 ft | 271 kts | 35° |
| 2026-05-07 13:55 | 39.28891 | -94.86007 | 7232 ft | 263 kts | 34° |
| 2026-05-07 13:55 | 39.30313 | -94.84584 | 7124 ft | 252 kts | 30° |
| 2026-05-07 13:55 | 39.31838 | -94.83672 | 7043 ft | 234 kts | 11° |
| 2026-05-07 13:55 | 39.33375 | -94.83162 | 6881 ft | 224 kts | 7° |
| 2026-05-07 13:56 | 39.34900 | -94.82702 | 6473 ft | 226 kts | 8° |
| 2026-05-07 13:56 | 39.36438 | -94.82236 | 6055 ft | 228 kts | 7° |
| 2026-05-07 13:56 | 39.37983 | -94.81757 | 5705 ft | 228 kts | 7° |
| 2026-05-07 13:56 | 39.39524 | -94.81276 | 5447 ft | 228 kts | 7° |
| 2026-05-07 13:57 | 39.41047 | -94.80793 | 5187 ft | 222 kts | 7° |
| 2026-05-07 13:57 | 39.42523 | -94.80314 | 4939 ft | 216 kts | 7° |
| 2026-05-07 13:57 | 39.43938 | -94.79842 | 4687 ft | 210 kts | 8° |
| 2026-05-07 13:57 | 39.45335 | -94.79370 | 4426 ft | 205 kts | 7° |
| 2026-05-07 13:58 | 39.46697 | -94.78812 | 4161 ft | 209 kts | 24° |
| 2026-05-07 13:58 | 39.47721 | -94.77459 | 3941 ft | 215 kts | 63° |
| 2026-05-07 13:58 | 39.48015 | -94.75588 | 3750 ft | 213 kts | 94° |
| 2026-05-07 13:58 | 39.47895 | -94.73684 | 3607 ft | 212 kts | 100° |
| 2026-05-07 13:59 | 39.47714 | -94.71821 | 3441 ft | 205 kts | 101° |
| 2026-05-07 13:59 | 39.47371 | -94.70074 | 3273 ft | 198 kts | 118° |
| 2026-05-07 13:59 | 39.46704 | -94.68566 | 3142 ft | 191 kts | 135° |
| 2026-05-07 13:59 | 39.45729 | -94.67528 | 2982 ft | 173 kts | 175° |
| 2026-05-07 14:00 | 39.44707 | -94.67737 | 3075 ft | 137 kts | 212° |
| 2026-05-07 14:00 | 39.43866 | -94.68202 | 3490 ft | 138 kts | 211° |
| 2026-05-07 14:00 | 39.42934 | -94.68730 | 3294 ft | 150 kts | 209° |
| 2026-05-07 14:00 | 39.41956 | -94.69159 | 3037 ft | 144 kts | 202° |
| 2026-05-07 14:01 | 39.41034 | -94.69446 | 2841 ft | 130 kts | 202° |
| 2026-05-07 14:01 | 39.40163 | -94.69704 | 2659 ft | 129 kts | 202° |
| 2026-05-07 14:01 | 39.39280 | -94.69972 | 2500 ft | 131 kts | 202° |
| 2026-05-07 14:01 | 39.38386 | -94.70241 | 2306 ft | 133 kts | 200° |
| 2026-05-07 14:02 | 39.37490 | -94.70507 | 2129 ft | 131 kts | 201° |
| 2026-05-07 14:02 | 39.36602 | -94.70776 | 1941 ft | 132 kts | 200° |
| 2026-05-07 14:02 | 39.35708 | -94.71057 | 1730 ft | 131 kts | 198° |
| 2026-05-07 14:02 | 39.34811 | -94.71317 | 1562 ft | 135 kts | 195° |
| 2026-05-07 14:03 | 39.33891 | -94.71558 | 1358 ft | 135 kts | 197° |
| 2026-05-07 14:03 | 39.32981 | -94.71857 | 1234 ft | 135 kts | 197° |
| 2026-05-07 14:03 | 39.32093 | -94.72116 | 1037 ft | 127 kts | 194° |
| 2026-05-07 14:03 | 39.31335 | -94.72344 | 1021 ft | 91 kts | 193° |
| 2026-05-07 14:04 | 39.30882 | -94.72479 | 1019 ft | 45 kts | 193° |
| 2026-05-07 14:04 | 39.30713 | -94.72520 | 1018 ft | 18 kts | 171° |
| 2026-05-07 14:04 | 39.30692 | -94.72419 | 1020 ft | 12 kts | 57° |
| 2026-05-07 14:04 | 39.30730 | -94.72359 | 1020 ft | 4 kts | 28° |
| 2026-05-07 14:05 | 39.30731 | -94.72333 | 1020 ft | 6 kts | 94° |
| 2026-05-07 14:05 | 39.30739 | -94.72251 | 1020 ft | 8 kts | 51° |
| 2026-05-07 14:05 | 39.30809 | -94.72224 | 1020 ft | 16 kts | 12° |
| 2026-05-07 14:05 | 39.30946 | -94.72183 | 1020 ft | 24 kts | 13° |
| 2026-05-07 14:06 | 39.31104 | -94.72137 | 1020 ft | 23 kts | 13° |
| 2026-05-07 14:06 | 39.31260 | -94.72091 | 1020 ft | 23 kts | 13° |
| 2026-05-07 14:06 | 39.31414 | -94.72046 | 1020 ft | 22 kts | 14° |
| 2026-05-07 14:06 | 39.31566 | -94.71999 | 1020 ft | 22 kts | 13° |
| 2026-05-07 14:07 | 39.31712 | -94.71956 | 1020 ft | 21 kts | 13° |
| 2026-05-07 14:07 | 39.31847 | -94.71916 | 1021 ft | 19 kts | 13° |
| 2026-05-07 14:07 | 39.31979 | -94.71878 | 1021 ft | 19 kts | 12° |
| 2026-05-07 14:07 | 39.32102 | -94.71842 | 1021 ft | 14 kts | 13° |
| 2026-05-07 14:08 | 39.32154 | -94.71766 | 1021 ft | 12 kts | 89° |
| 2026-05-07 14:08 | 39.32146 | -94.71670 | 1020 ft | 10 kts | 78° |
| 2026-05-07 14:08 | 39.32192 | -94.71633 | 1020 ft | 7 kts | 15° |
| 2026-05-07 14:08 | 39.32238 | -94.71617 | 1020 ft | 4 kts | 22° |
| 2026-05-07 14:09 | 39.32247 | -94.71592 | 1020 ft | 5 kts | 73° |
| 2026-05-07 14:09 | 39.32246 | -94.71557 | 1020 ft | 3 kts | 102° |
| 2026-05-07 14:09 | 39.32244 | -94.71542 | 1020 ft | 0 kts | 102° |